Maimiti — PBIJ — position and weather

sailwx.info

Track history (hours):
 
Tides and Currents Weather Stations Pressure Air Temp Water Temp Dewpoint Dewpoint Depression Visibility Wind Speed Wind Dir Waves Ship Positions

Maimiti

Last reported at 2016-Jul-26 10:17 UTC. Time now 2016-Jul-26 14:08 UTC.
Position N 54°51' E 014°04'.

Length 35 m; draft 6.7 m.

Type: Tug. MMSI: 244850959.

Date/timePositionNaut miles runAvg speedWind from/ knotsBaromVisibWave heightAir tempDewpointWater temp
2016-Jul-26 10:17N 54°51' E 014°04'0 0.2
2016-Jul-26 08:15N 54°51' E 014°05'0 0.5
2016-Jul-26 07:30N 54°51' E 014°04'0 0.5
2016-Jul-26 06:33N 54°51' E 014°04'1 0.5
2016-Jul-26 05:33N 54°51' E 014°05'1 0.7
2016-Jul-26 04:33N 54°51' E 014°05'0 0.0
2016-Jul-26 03:34N 54°50' E 014°05'0 0.0
2016-Jul-26 02:27N 54°51' E 014°05'0 0.0
2016-Jul-26 01:30N 54°51' E 014°05'0 0.0
2016-Jul-26 00:33N 54°50' E 014°05'0 0.0
2016-Jul-25 23:34N 54°50' E 014°05'0 0.0
2016-Jul-25 22:34N 54°51' E 014°05'0 0.0
2016-Jul-25 21:34N 54°50' E 014°05'0 0.0
2016-Jul-25 20:33N 54°50' E 014°05'0 0.0
2016-Jul-25 19:34N 54°51' E 014°05'0 0.0
2016-Jul-25 18:34N 54°51' E 014°05'0 0.0
2016-Jul-25 17:34N 54°51' E 014°05'0 0.0
2016-Jul-25 16:33N 54°51' E 014°05'0 0.0
2016-Jul-25 15:34N 54°51' E 014°05'0 0.0
2016-Jul-25 14:25N 54°50' E 014°05'0 0.0
2016-Jul-25 13:33N 54°51' E 014°05'0 0.0
2016-Jul-25 12:21N 54°50' E 014°05'0 0.0
2016-Jul-25 11:24N 54°50' E 014°05'1 0.9
2016-Jul-25 10:33N 54°51' E 014°04'1 0.7
2016-Jul-25 09:32N 54°50' E 014°05'1 0.5
2016-Jul-25 08:33N 54°51' E 014°04'1 0.6
2016-Jul-25 07:33N 54°50' E 014°05'0 0.0
2016-Jul-25 06:34N 54°50' E 014°05'0 0.0
2016-Jul-25 05:29N 54°50' E 014°05'0 0.0
2016-Jul-25 04:32N 54°50' E 014°05'0 0.0
2016-Jul-25 03:32N 54°50' E 014°05'0 0.0
2016-Jul-25 02:22N 54°50' E 014°05'0 0.0
2016-Jul-25 01:31N 54°50' E 014°05'0 0.0
2016-Jul-25 00:33N 54°50' E 014°05'0 0.0
2016-Jul-24 23:33N 54°50' E 014°05'0 0.0
2016-Jul-24 22:32N 54°50' E 014°05'0 0.0
2016-Jul-24 21:33N 54°50' E 014°05'0 0.0
2016-Jul-24 20:31N 54°50' E 014°05'0 0.0
2016-Jul-24 19:33N 54°50' E 014°05'0 0.0
2016-Jul-24 18:34N 54°50' E 014°05'0 0.0
2016-Jul-24 17:32N 54°50' E 014°05'0 0.0
2016-Jul-24 16:34N 54°50' E 014°05'0 0.0
2016-Jul-24 15:33N 54°50' E 014°05'0 0.0
2016-Jul-24 14:33N 54°50' E 014°05'0 0.5
2016-Jul-24 13:33N 54°50' E 014°04'1 0.5
2016-Jul-24 12:33N 54°51' E 014°04'0 0.3
2016-Jul-24 11:32N 54°50' E 014°04'0 0.0
2016-Jul-24 10:31N 54°51' E 014°04'0 0.0
2016-Jul-24 09:26N 54°51' E 014°04'0 0.0
2016-Jul-24 08:33N 54°51' E 014°04'0 0.0
2016-Jul-24 07:33N 54°51' E 014°04'0 0.0
2016-Jul-24 06:25N 54°51' E 014°04'0 0.0
2016-Jul-24 05:33N 54°51' E 014°04'0 0.0
2016-Jul-24 04:33N 54°50' E 014°04'0 0.0
2016-Jul-24 03:33N 54°50' E 014°04'0 0.0
2016-Jul-24 02:33N 54°50' E 014°04'0 0.0
2016-Jul-24 01:34N 54°50' E 014°04'0 0.0
2016-Jul-24 00:33N 54°50' E 014°04'0 0.0
2016-Jul-23 23:34N 54°50' E 014°04'0 0.0
2016-Jul-23 22:33N 54°51' E 014°04'0 0.0
2016-Jul-23 21:33N 54°51' E 014°04'0 0.0
2016-Jul-23 20:33N 54°51' E 014°04'0 0.0
2016-Jul-23 19:26N 54°51' E 014°04'0 0.0
2016-Jul-23 18:34N 54°51' E 014°04'0 0.0
2016-Jul-23 17:33N 54°51' E 014°04'0 0.0
2016-Jul-23 16:33N 54°51' E 014°04'0 0.0
2016-Jul-23 15:33N 54°50' E 014°04'0 0.0
2016-Jul-23 14:33N 54°51' E 014°04'27 4.5
2016-Jul-23 08:26N 54°29' E 013°35'0 0.0
2016-Jul-23 07:12N 54°29' E 013°35'1 1.5
2016-Jul-23 06:33N 54°28' E 013°36'7 3.6
2016-Jul-23 04:34N 54°34' E 013°44'6 6.1
2016-Jul-23 03:34N 54°39' E 013°37'6 6.1
2016-Jul-23 02:33N 54°43' E 013°30'6 5.7
2016-Jul-23 01:34N 54°45' E 013°21'6 5.8
2016-Jul-23 00:33N 54°44' E 013°10'6 5.8
2016-Jul-22 23:33N 54°44' E 013°00'6 6.2
2016-Jul-22 22:32N 54°43' E 012°50'6 6.2
2016-Jul-22 21:33N 54°41' E 012°40'6 6.4
2016-Jul-22 20:33N 54°38' E 012°30'7 6.2
2016-Jul-22 19:31N 54°35' E 012°20'9 6.2
2016-Jul-22 18:04N 54°27' E 012°13'3 6.3
2016-Jul-22 17:34N 54°25' E 012°09'6 6.0
2016-Jul-22 16:34N 54°24' E 011°59'7 6.6
2016-Jul-22 15:34N 54°25' E 011°48'6 6.3
2016-Jul-22 14:34N 54°27' E 011°38'6 6.5
2016-Jul-22 13:33N 54°30' E 011°28'6 6.3
2016-Jul-22 12:33N 54°33' E 011°18'6 5.7
2016-Jul-22 11:33N 54°36' E 011°09'6 5.9
2016-Jul-22 10:33N 54°39' E 011°00'6 5.7
2016-Jul-22 09:34N 54°42' E 010°52'6 5.6
2016-Jul-22 08:33N 54°48' E 010°52'5 5.3
2016-Jul-22 07:34N 54°53' E 010°53'17 5.7
2016-Jul-22 04:33N 55°09' E 011°03'6 6.0
2016-Jul-22 03:32N 55°15' E 011°05'12 6.1
2016-Jul-22 01:33N 55°26' E 010°57'8 7.0
2016-Jul-22 00:24N 55°33' E 010°50'11 5.5
2016-Jul-21 22:27N 55°44' E 010°48'30 6.1
2016-Jul-21 17:31N 56°12' E 011°05'32 6.1
2016-Jul-21 12:18N 56°44' E 010°59'5 6.3
2016-Jul-21 11:33N 56°47' E 010°52'6 6.5
2016-Jul-21 10:33N 56°50' E 010°42'6 6.1
2016-Jul-21 09:33N 56°53' E 010°32'6 5.8
2016-Jul-21 08:34N 56°57' E 010°24'6 5.3
2016-Jul-21 07:27N 56°59' E 010°14'5 6.0
2016-Jul-21 06:33N 57°02' E 010°06'2 2.2
2016-Jul-21 05:34N 57°03' E 010°03'4 3.8
2016-Jul-21 04:34N 57°03' E 009°56'0 0.0
2016-Jul-21 03:34N 57°03' E 009°56'0 0.0
2016-Jul-21 02:34N 57°03' E 009°56'0 0.0
2016-Jul-21 01:34N 57°03' E 009°56'0 0.0
2016-Jul-21 00:34N 57°03' E 009°56'0 0.0
2016-Jul-20 23:34N 57°03' E 009°56'0 0.0
2016-Jul-20 22:33N 57°03' E 009°56'0 0.0
2016-Jul-20 21:34N 57°03' E 009°56'0 0.0
2016-Jul-20 20:33N 57°03' E 009°56'2 2.4
2016-Jul-20 19:33N 57°05' E 009°59'2 2.5
2016-Jul-20 18:34N 57°03' E 010°03'0 0.0
2016-Jul-20 17:34N 57°03' E 010°03'0 0.0
2016-Jul-20 16:34N 57°03' E 010°03'0 0.0
2016-Jul-20 15:34N 57°03' E 010°03'0 0.0
2016-Jul-20 14:33N 57°03' E 010°03'0 0.0
2016-Jul-20 13:33N 57°03' E 010°03'0 0.0
2016-Jul-20 12:33N 57°03' E 010°03'0 0.0
2016-Jul-20 11:34N 57°03' E 010°03'0 0.0
2016-Jul-20 10:33N 57°03' E 010°03'0 0.0
2016-Jul-20 09:33N 57°03' E 010°03'0 0.0
2016-Jul-20 08:33N 57°03' E 010°03'0 0.0
2016-Jul-20 07:34N 57°03' E 010°03'0 0.4
2016-Jul-20 06:34N 57°04' E 010°03'4 3.7
2016-Jul-20 05:33N 57°03' E 009°56'0 0.0
2016-Jul-20 04:34N 57°03' E 009°56'0 0.0
2016-Jul-20 03:33N 57°03' E 009°56'0 0.0
2016-Jul-20 02:33N 57°03' E 009°56'0 0.0
2016-Jul-20 01:33N 57°03' E 009°56'0 0.0
2016-Jul-20 00:33N 57°03' E 009°56'0 0.0
2016-Jul-19 23:34N 57°03' E 009°56'0 0.0
2016-Jul-19 22:33N 57°03' E 009°56'0 0.0
2016-Jul-19 21:33N 57°03' E 009°56'0 0.0
2016-Jul-19 20:33N 57°03' E 009°56'0 0.0
2016-Jul-19 19:33N 57°03' E 009°56'0 0.0
2016-Jul-19 18:34N 57°03' E 009°56'0 0.0
2016-Jul-19 17:33N 57°03' E 009°56'0 0.0
2016-Jul-19 16:33N 57°03' E 009°56'0 0.0
2016-Jul-19 15:34N 57°03' E 009°56'0 0.0
2016-Jul-19 14:34N 57°03' E 009°56'0 0.0
2016-Jul-19 13:34N 57°03' E 009°56'0 0.3
2016-Jul-19 12:33N 57°03' E 009°55'0 0.0
2016-Jul-19 11:33N 57°03' E 009°55'0 0.0
2016-Jul-19 10:33N 57°03' E 009°55'0 0.0
2016-Jul-19 09:33N 57°03' E 009°55'0 0.0
2016-Jul-19 08:33N 57°03' E 009°55'0 0.0
2016-Jul-19 07:34N 57°03' E 009°55'0 0.0
2016-Jul-19 06:34N 57°03' E 009°55'0 0.0
2016-Jul-19 04:33N 57°03' E 009°55'0 0.0
2016-Jul-19 03:34N 57°03' E 009°55'0 0.0
2016-Jul-19 02:34N 57°03' E 009°55'0 0.0
2016-Jul-19 01:34N 57°03' E 009°55'0 0.0
2016-Jul-19 00:34N 57°03' E 009°55'0 0.0
2016-Jul-18 23:34N 57°03' E 009°55'0 0.0
2016-Jul-18 22:34N 57°03' E 009°55'0 0.0
2016-Jul-18 21:33N 57°03' E 009°55'0 0.0
2016-Jul-18 20:33N 57°03' E 009°55'0 0.0
2016-Jul-18 19:33N 57°03' E 009°55'0 0.0
2016-Jul-18 18:33N 57°03' E 009°55'0 0.0
2016-Jul-18 17:34N 57°03' E 009°55'0 0.0
2016-Jul-18 16:33N 57°03' E 009°55'0 0.0
2016-Jul-18 15:33N 57°03' E 009°55'0 0.0
2016-Jul-18 14:33N 57°03' E 009°55'1 0.8
2016-Jul-18 13:34N 57°03' E 009°57'3 3.2
2016-Jul-18 12:34N 57°03' E 010°03'0 0.2
2016-Jul-18 11:34N 57°03' E 010°03'3 3.4
2016-Jul-18 10:33N 57°01' E 010°08'107 6.0
2016-Jul-17 16:32N 55°19' E 011°03'6 6.4
2016-Jul-17 15:34N 55°13' E 011°06'6 6.2
2016-Jul-17 14:33N 55°07' E 011°03'6 6.0
2016-Jul-17 13:34N 55°01' E 011°02'5 5.4
2016-Jul-17 12:34N 54°56' E 010°57'5 5.1
2016-Jul-17 11:34N 54°52' E 010°53'6 6.0
2016-Jul-17 10:33N 54°46' E 010°53'7 6.8
2016-Jul-17 09:34N 54°41' E 011°01'7 7.2
2016-Jul-17 08:34N 54°37' E 011°12'7 7.4
2016-Jul-17 07:34N 54°33' E 011°23'7 7.1
2016-Jul-17 06:34N 54°31' E 011°34'15 7.4
2016-Jul-17 04:33N 54°27' E 011°58'7 7.0
2016-Jul-17 03:32N 54°28' E 012°10'7 7.2
2016-Jul-17 02:33N 54°34' E 012°15'7 7.0
2016-Jul-17 01:31N 54°39' E 012°25'7 7.3
2016-Jul-17 00:33N 54°43' E 012°34'15 7.0
2016-Jul-16 22:26N 54°48' E 012°59'8 7.4
2016-Jul-16 21:23N 54°48' E 013°12'6 7.0
2016-Jul-16 20:33N 54°49' E 013°22'21 6.9
2016-Jul-16 17:25N 54°49' E 013°60'1 1.7
2016-Jul-16 16:33N 54°50' E 014°02'0 0.0
2016-Jul-16 11:34N 54°50' E 014°02'  
Track history (hours):
 
Tides and Currents Weather Stations Pressure Air Temp Water Temp Dewpoint Dewpoint Depression Visibility Wind Speed Wind Dir Waves Ship Positions

Maimiti

Last reported at 2016-Jul-26 10:17 UTC. Time now 2016-Jul-26 14:08 UTC.
Position N 54°51' E 014°04'.

Length 35 m; draft 6.7 m.

Type: Tug. MMSI: 244850959.

Date/timePositionNaut miles runAvg speedWind from/ knotsBaromVisibWave heightAir tempDewpointWater temp
2016-Jul-26 10:17N 54°51' E 014°04'0 0.2
2016-Jul-26 08:15N 54°51' E 014°05'0 0.5
2016-Jul-26 07:30N 54°51' E 014°04'0 0.5
2016-Jul-26 06:33N 54°51' E 014°04'1 0.5
2016-Jul-26 05:33N 54°51' E 014°05'1 0.7
2016-Jul-26 04:33N 54°51' E 014°05'0 0.0
2016-Jul-26 03:34N 54°50' E 014°05'0 0.0
2016-Jul-26 02:27N 54°51' E 014°05'0 0.0
2016-Jul-26 01:30N 54°51' E 014°05'0 0.0
2016-Jul-26 00:33N 54°50' E 014°05'0 0.0
2016-Jul-25 23:34N 54°50' E 014°05'0 0.0
2016-Jul-25 22:34N 54°51' E 014°05'0 0.0
2016-Jul-25 21:34N 54°50' E 014°05'0 0.0
2016-Jul-25 20:33N 54°50' E 014°05'0 0.0
2016-Jul-25 19:34N 54°51' E 014°05'0 0.0
2016-Jul-25 18:34N 54°51' E 014°05'0 0.0
2016-Jul-25 17:34N 54°51' E 014°05'0 0.0
2016-Jul-25 16:33N 54°51' E 014°05'0 0.0
2016-Jul-25 15:34N 54°51' E 014°05'0 0.0
2016-Jul-25 14:25N 54°50' E 014°05'0 0.0
2016-Jul-25 13:33N 54°51' E 014°05'0 0.0
2016-Jul-25 12:21N 54°50' E 014°05'0 0.0
2016-Jul-25 11:24N 54°50' E 014°05'1 0.9
2016-Jul-25 10:33N 54°51' E 014°04'1 0.7
2016-Jul-25 09:32N 54°50' E 014°05'1 0.5
2016-Jul-25 08:33N 54°51' E 014°04'1 0.6
2016-Jul-25 07:33N 54°50' E 014°05'0 0.0
2016-Jul-25 06:34N 54°50' E 014°05'0 0.0
2016-Jul-25 05:29N 54°50' E 014°05'0 0.0
2016-Jul-25 04:32N 54°50' E 014°05'0 0.0
2016-Jul-25 03:32N 54°50' E 014°05'0 0.0
2016-Jul-25 02:22N 54°50' E 014°05'0 0.0
2016-Jul-25 01:31N 54°50' E 014°05'0 0.0
2016-Jul-25 00:33N 54°50' E 014°05'0 0.0
2016-Jul-24 23:33N 54°50' E 014°05'0 0.0
2016-Jul-24 22:32N 54°50' E 014°05'0 0.0
2016-Jul-24 21:33N 54°50' E 014°05'0 0.0
2016-Jul-24 20:31N 54°50' E 014°05'0 0.0
2016-Jul-24 19:33N 54°50' E 014°05'0 0.0
2016-Jul-24 18:34N 54°50' E 014°05'0 0.0
2016-Jul-24 17:32N 54°50' E 014°05'0 0.0
2016-Jul-24 16:34N 54°50' E 014°05'0 0.0
2016-Jul-24 15:33N 54°50' E 014°05'0 0.0
2016-Jul-24 14:33N 54°50' E 014°05'0 0.5
2016-Jul-24 13:33N 54°50' E 014°04'1 0.5
2016-Jul-24 12:33N 54°51' E 014°04'0 0.3
2016-Jul-24 11:32N 54°50' E 014°04'0 0.0
2016-Jul-24 10:31N 54°51' E 014°04'0 0.0
2016-Jul-24 09:26N 54°51' E 014°04'0 0.0
2016-Jul-24 08:33N 54°51' E 014°04'0 0.0
2016-Jul-24 07:33N 54°51' E 014°04'0 0.0
2016-Jul-24 06:25N 54°51' E 014°04'0 0.0
2016-Jul-24 05:33N 54°51' E 014°04'0 0.0
2016-Jul-24 04:33N 54°50' E 014°04'0 0.0
2016-Jul-24 03:33N 54°50' E 014°04'0 0.0
2016-Jul-24 02:33N 54°50' E 014°04'0 0.0
2016-Jul-24 01:34N 54°50' E 014°04'0 0.0
2016-Jul-24 00:33N 54°50' E 014°04'0 0.0
2016-Jul-23 23:34N 54°50' E 014°04'0 0.0
2016-Jul-23 22:33N 54°51' E 014°04'0 0.0
2016-Jul-23 21:33N 54°51' E 014°04'0 0.0
2016-Jul-23 20:33N 54°51' E 014°04'0 0.0
2016-Jul-23 19:26N 54°51' E 014°04'0 0.0
2016-Jul-23 18:34N 54°51' E 014°04'0 0.0
2016-Jul-23 17:33N 54°51' E 014°04'0 0.0
2016-Jul-23 16:33N 54°51' E 014°04'0 0.0
2016-Jul-23 15:33N 54°50' E 014°04'0 0.0
2016-Jul-23 14:33N 54°51' E 014°04'27 4.5
2016-Jul-23 08:26N 54°29' E 013°35'0 0.0
2016-Jul-23 07:12N 54°29' E 013°35'1 1.5
2016-Jul-23 06:33N 54°28' E 013°36'7 3.6
2016-Jul-23 04:34N 54°34' E 013°44'6 6.1
2016-Jul-23 03:34N 54°39' E 013°37'6 6.1
2016-Jul-23 02:33N 54°43' E 013°30'6 5.7
2016-Jul-23 01:34N 54°45' E 013°21'6 5.8
2016-Jul-23 00:33N 54°44' E 013°10'6 5.8
2016-Jul-22 23:33N 54°44' E 013°00'6 6.2
2016-Jul-22 22:32N 54°43' E 012°50'6 6.2
2016-Jul-22 21:33N 54°41' E 012°40'6 6.4
2016-Jul-22 20:33N 54°38' E 012°30'7 6.2
2016-Jul-22 19:31N 54°35' E 012°20'9 6.2
2016-Jul-22 18:04N 54°27' E 012°13'3 6.3
2016-Jul-22 17:34N 54°25' E 012°09'6 6.0
2016-Jul-22 16:34N 54°24' E 011°59'7 6.6
2016-Jul-22 15:34N 54°25' E 011°48'6 6.3
2016-Jul-22 14:34N 54°27' E 011°38'6 6.5
2016-Jul-22 13:33N 54°30' E 011°28'6 6.3
2016-Jul-22 12:33N 54°33' E 011°18'6 5.7
2016-Jul-22 11:33N 54°36' E 011°09'6 5.9
2016-Jul-22 10:33N 54°39' E 011°00'6 5.7
2016-Jul-22 09:34N 54°42' E 010°52'6 5.6
2016-Jul-22 08:33N 54°48' E 010°52'5 5.3
2016-Jul-22 07:34N 54°53' E 010°53'17 5.7
2016-Jul-22 04:33N 55°09' E 011°03'6 6.0
2016-Jul-22 03:32N 55°15' E 011°05'12 6.1
2016-Jul-22 01:33N 55°26' E 010°57'8 7.0
2016-Jul-22 00:24N 55°33' E 010°50'11 5.5
2016-Jul-21 22:27N 55°44' E 010°48'30 6.1
2016-Jul-21 17:31N 56°12' E 011°05'32 6.1
2016-Jul-21 12:18N 56°44' E 010°59'5 6.3
2016-Jul-21 11:33N 56°47' E 010°52'6 6.5
2016-Jul-21 10:33N 56°50' E 010°42'6 6.1
2016-Jul-21 09:33N 56°53' E 010°32'6 5.8
2016-Jul-21 08:34N 56°57' E 010°24'6 5.3
2016-Jul-21 07:27N 56°59' E 010°14'5 6.0
2016-Jul-21 06:33N 57°02' E 010°06'2 2.2
2016-Jul-21 05:34N 57°03' E 010°03'4 3.8
2016-Jul-21 04:34N 57°03' E 009°56'0 0.0
2016-Jul-21 03:34N 57°03' E 009°56'0 0.0
2016-Jul-21 02:34N 57°03' E 009°56'0 0.0
2016-Jul-21 01:34N 57°03' E 009°56'0 0.0
2016-Jul-21 00:34N 57°03' E 009°56'0 0.0
2016-Jul-20 23:34N 57°03' E 009°56'0 0.0
2016-Jul-20 22:33N 57°03' E 009°56'0 0.0
2016-Jul-20 21:34N 57°03' E 009°56'0 0.0
2016-Jul-20 20:33N 57°03' E 009°56'2 2.4
2016-Jul-20 19:33N 57°05' E 009°59'2 2.5
2016-Jul-20 18:34N 57°03' E 010°03'0 0.0
2016-Jul-20 17:34N 57°03' E 010°03'0 0.0
2016-Jul-20 16:34N 57°03' E 010°03'0 0.0
2016-Jul-20 15:34N 57°03' E 010°03'0 0.0
2016-Jul-20 14:33N 57°03' E 010°03'0 0.0
2016-Jul-20 13:33N 57°03' E 010°03'0 0.0
2016-Jul-20 12:33N 57°03' E 010°03'0 0.0
2016-Jul-20 11:34N 57°03' E 010°03'0 0.0
2016-Jul-20 10:33N 57°03' E 010°03'0 0.0
2016-Jul-20 09:33N 57°03' E 010°03'0 0.0
2016-Jul-20 08:33N 57°03' E 010°03'0 0.0
2016-Jul-20 07:34N 57°03' E 010°03'0 0.4
2016-Jul-20 06:34N 57°04' E 010°03'4 3.7
2016-Jul-20 05:33N 57°03' E 009°56'0 0.0
2016-Jul-20 04:34N 57°03' E 009°56'0 0.0
2016-Jul-20 03:33N 57°03' E 009°56'0 0.0
2016-Jul-20 02:33N 57°03' E 009°56'0 0.0
2016-Jul-20 01:33N 57°03' E 009°56'0 0.0
2016-Jul-20 00:33N 57°03' E 009°56'0 0.0
2016-Jul-19 23:34N 57°03' E 009°56'0 0.0
2016-Jul-19 22:33N 57°03' E 009°56'0 0.0
2016-Jul-19 21:33N 57°03' E 009°56'0 0.0
2016-Jul-19 20:33N 57°03' E 009°56'0 0.0
2016-Jul-19 19:33N 57°03' E 009°56'0 0.0
2016-Jul-19 18:34N 57°03' E 009°56'0 0.0
2016-Jul-19 17:33N 57°03' E 009°56'0 0.0
2016-Jul-19 16:33N 57°03' E 009°56'0 0.0
2016-Jul-19 15:34N 57°03' E 009°56'0 0.0
2016-Jul-19 14:34N 57°03' E 009°56'0 0.0
2016-Jul-19 13:34N 57°03' E 009°56'0 0.3
2016-Jul-19 12:33N 57°03' E 009°55'0 0.0
2016-Jul-19 11:33N 57°03' E 009°55'0 0.0
2016-Jul-19 10:33N 57°03' E 009°55'0 0.0
2016-Jul-19 09:33N 57°03' E 009°55'0 0.0
2016-Jul-19 08:33N 57°03' E 009°55'0 0.0
2016-Jul-19 07:34N 57°03' E 009°55'0 0.0
2016-Jul-19 06:34N 57°03' E 009°55'0 0.0
2016-Jul-19 04:33N 57°03' E 009°55'0 0.0
2016-Jul-19 03:34N 57°03' E 009°55'0 0.0
2016-Jul-19 02:34N 57°03' E 009°55'0 0.0
2016-Jul-19 01:34N 57°03' E 009°55'0 0.0
2016-Jul-19 00:34N 57°03' E 009°55'0 0.0
2016-Jul-18 23:34N 57°03' E 009°55'0 0.0
2016-Jul-18 22:34N 57°03' E 009°55'0 0.0
2016-Jul-18 21:33N 57°03' E 009°55'0 0.0
2016-Jul-18 20:33N 57°03' E 009°55'0 0.0
2016-Jul-18 19:33N 57°03' E 009°55'0 0.0
2016-Jul-18 18:33N 57°03' E 009°55'0 0.0
2016-Jul-18 17:34N 57°03' E 009°55'0 0.0
2016-Jul-18 16:33N 57°03' E 009°55'0 0.0
2016-Jul-18 15:33N 57°03' E 009°55'0 0.0
2016-Jul-18 14:33N 57°03' E 009°55'1 0.8
2016-Jul-18 13:34N 57°03' E 009°57'3 3.2
2016-Jul-18 12:34N 57°03' E 010°03'0 0.2
2016-Jul-18 11:34N 57°03' E 010°03'3 3.4
2016-Jul-18 10:33N 57°01' E 010°08'107 6.0
2016-Jul-17 16:32N 55°19' E 011°03'6 6.4
2016-Jul-17 15:34N 55°13' E 011°06'6 6.2
2016-Jul-17 14:33N 55°07' E 011°03'6 6.0
2016-Jul-17 13:34N 55°01' E 011°02'5 5.4
2016-Jul-17 12:34N 54°56' E 010°57'5 5.1
2016-Jul-17 11:34N 54°52' E 010°53'6 6.0
2016-Jul-17 10:33N 54°46' E 010°53'7 6.8
2016-Jul-17 09:34N 54°41' E 011°01'7 7.2
2016-Jul-17 08:34N 54°37' E 011°12'7 7.4
2016-Jul-17 07:34N 54°33' E 011°23'7 7.1
2016-Jul-17 06:34N 54°31' E 011°34'15 7.4
2016-Jul-17 04:33N 54°27' E 011°58'7 7.0
2016-Jul-17 03:32N 54°28' E 012°10'7 7.2
2016-Jul-17 02:33N 54°34' E 012°15'7 7.0
2016-Jul-17 01:31N 54°39' E 012°25'7 7.3
2016-Jul-17 00:33N 54°43' E 012°34'15 7.0
2016-Jul-16 22:26N 54°48' E 012°59'8 7.4
2016-Jul-16 21:23N 54°48' E 013°12'6 7.0
2016-Jul-16 20:33N 54°49' E 013°22'21 6.9
2016-Jul-16 17:25N 54°49' E 013°60'1 1.7
2016-Jul-16 16:33N 54°50' E 014°02'0 0.0
2016-Jul-16 11:34N 54°50' E 014°02'  

Dump ship's entire track history